Terminal Aerodrome Forecast
Issued by NWS Sioux Falls, SD

Home | Current Version | Previous Version | Graphics & Text | Print | Product List | Glossary Off
Versions: 1 2 3 4 5 6 7 8 9 10 11 12 13 14 15 16 17 18

282
FTUS43 KFSD 151721
TAFFSD
TAF
KFSD 151721Z 1518/1618 19006KT P6SM SCT250
     FM160800 VRB03KT P6SM OVC110
     FM161200 VRB03KT P6SM OVC020
     FM161400 VRB03KT P6SM OVC015=

USA.gov is the U.S. government's official web portal to all federal, state and local government web resources and services.